ARG1487 SAVE-SAEZ
Flight info
| Callsign | ARG1487 |
|---|---|
| Flight time | 1h 57m |
| Altitude | 37000 |
| Route | GEBUS DCT TOMIV UT657 BCA UW22 VALOS |
| Aircraft | B737/M-SDE2E3FGHIRWXY/LB1 |
Departure
| Time | 2026-04-27 19:36 |
|---|---|
| Airport | Esquel Brigadier Antonio Parodi International Airport (SAVE) |
Arrival
| Time | 2026-04-27 21:34 |
|---|---|
| Airport | Ezeiza International Airport - Ministro Pistarini (SAEZ) |
| Time | Latitude | Longitude | Altitude | Speed | Heading |
|---|---|---|---|---|---|
| 2026-04-27 18:57 | -42.90665 | -71.14681 | 2635 ft | 0 kts | 324° |
| 2026-04-27 19:27 | -42.90668 | -71.14678 | 2635 ft | 3 kts | 321° |
| 2026-04-27 19:27 | -42.90679 | -71.14651 | 2635 ft | 4 kts | 260° |
| 2026-04-27 19:27 | -42.90669 | -71.14618 | 2635 ft | 4 kts | 232° |
| 2026-04-27 19:27 | -42.90650 | -71.14593 | 2635 ft | 4 kts | 210° |
| 2026-04-27 19:28 | -42.90643 | -71.14588 | 2635 ft | 1 kts | 202° |
| 2026-04-27 19:30 | -42.90649 | -71.14591 | 2635 ft | 3 kts | 202° |
| 2026-04-27 19:31 | -42.90681 | -71.14605 | 2635 ft | 7 kts | 185° |
| 2026-04-27 19:31 | -42.90731 | -71.14569 | 2636 ft | 10 kts | 133° |
| 2026-04-27 19:31 | -42.90741 | -71.14465 | 2636 ft | 13 kts | 87° |
| 2026-04-27 19:31 | -42.90728 | -71.14322 | 2635 ft | 17 kts | 71° |
| 2026-04-27 19:32 | -42.90675 | -71.14171 | 2635 ft | 18 kts | 57° |
| 2026-04-27 19:32 | -42.90608 | -71.14032 | 2635 ft | 17 kts | 57° |
| 2026-04-27 19:32 | -42.90544 | -71.13897 | 2636 ft | 17 kts | 57° |
| 2026-04-27 19:32 | -42.90483 | -71.13768 | 2636 ft | 16 kts | 57° |
| 2026-04-27 19:33 | -42.90424 | -71.13644 | 2638 ft | 15 kts | 57° |
| 2026-04-27 19:33 | -42.90386 | -71.13564 | 2638 ft | 15 kts | 57° |
| 2026-04-27 19:33 | -42.90313 | -71.13410 | 2638 ft | 14 kts | 57° |
| 2026-04-27 19:33 | -42.90259 | -71.13298 | 2638 ft | 15 kts | 57° |
| 2026-04-27 19:34 | -42.90189 | -71.13151 | 2635 ft | 22 kts | 57° |
| 2026-04-27 19:34 | -42.90098 | -71.12959 | 2635 ft | 26 kts | 57° |
| 2026-04-27 19:34 | -42.90002 | -71.12758 | 2635 ft | 24 kts | 57° |
| 2026-04-27 19:34 | -42.89913 | -71.12571 | 2636 ft | 22 kts | 57° |
| 2026-04-27 19:35 | -42.89844 | -71.12426 | 2637 ft | 12 kts | 56° |
| 2026-04-27 19:35 | -42.89791 | -71.12364 | 2637 ft | 4 kts | 79° |
| 2026-04-27 19:35 | -42.89799 | -71.12358 | 2637 ft | 3 kts | 157° |
| 2026-04-27 19:35 | -42.89827 | -71.12391 | 2638 ft | 7 kts | 238° |
| 2026-04-27 19:36 | -42.89852 | -71.12446 | 2637 ft | 7 kts | 237° |
| 2026-04-27 19:36 | -42.90018 | -71.12794 | 2635 ft | 91 kts | 237° |
| 2026-04-27 19:36 | -42.90524 | -71.13852 | 2656 ft | 171 kts | 237° |
| 2026-04-27 19:36 | -42.91262 | -71.15244 | 3568 ft | 178 kts | 222° |
| 2026-04-27 19:37 | -42.92357 | -71.16057 | 4778 ft | 190 kts | 195° |
| 2026-04-27 19:37 | -42.93751 | -71.16230 | 5432 ft | 212 kts | 182° |
| 2026-04-27 19:37 | -42.95273 | -71.16041 | 6041 ft | 229 kts | 169° |
| 2026-04-27 19:37 | -42.96809 | -71.15046 | 6318 ft | 263 kts | 144° |
| 2026-04-27 19:38 | -42.98022 | -71.13003 | 6783 ft | 290 kts | 115° |
| 2026-04-27 19:38 | -42.98323 | -71.10298 | 7755 ft | 297 kts | 85° |
| 2026-04-27 19:38 | -42.97673 | -71.07581 | 8506 ft | 307 kts | 58° |
| 2026-04-27 19:38 | -42.96280 | -71.05336 | 9289 ft | 309 kts | 38° |
| 2026-04-27 19:39 | -42.94627 | -71.03495 | 10338 ft | 309 kts | 38° |
| 2026-04-27 19:39 | -42.93109 | -71.01493 | 11330 ft | 304 kts | 43° |
| 2026-04-27 19:39 | -42.91461 | -70.99517 | 11879 ft | 322 kts | 40° |
| 2026-04-27 19:39 | -42.89734 | -70.97522 | 12427 ft | 334 kts | 40° |
| 2026-04-27 19:40 | -42.87973 | -70.95411 | 13075 ft | 345 kts | 42° |
| 2026-04-27 19:40 | -42.86137 | -70.93097 | 13298 ft | 371 kts | 43° |
| 2026-04-27 19:40 | -42.84253 | -70.90631 | 13920 ft | 379 kts | 44° |
| 2026-04-27 19:40 | -42.82358 | -70.88103 | 14703 ft | 383 kts | 44° |
| 2026-04-27 19:41 | -42.80456 | -70.85540 | 15542 ft | 387 kts | 44° |
| 2026-04-27 19:41 | -42.78539 | -70.82948 | 16366 ft | 390 kts | 44° |
| 2026-04-27 19:41 | -42.76601 | -70.80325 | 17154 ft | 395 kts | 44° |
| 2026-04-27 19:41 | -42.74713 | -70.77564 | 17859 ft | 401 kts | 52° |
| 2026-04-27 19:42 | -42.73686 | -70.75459 | 18313 ft | 404 kts | 61° |
| 2026-04-27 19:42 | -42.72341 | -70.72090 | 19061 ft | 407 kts | 63° |
| 2026-04-27 19:42 | -42.70559 | -70.67550 | 19946 ft | 414 kts | 63° |
| 2026-04-27 19:42 | -42.69638 | -70.65215 | 20424 ft | 417 kts | 62° |
| 2026-04-27 19:43 | -42.68255 | -70.61733 | 21106 ft | 421 kts | 62° |
| 2026-04-27 19:43 | -42.66851 | -70.58225 | 21739 ft | 425 kts | 62° |
| 2026-04-27 19:43 | -42.65419 | -70.54673 | 22365 ft | 430 kts | 62° |
| 2026-04-27 19:43 | -42.63988 | -70.51138 | 22940 ft | 434 kts | 62° |
| 2026-04-27 19:44 | -42.62520 | -70.47533 | 23529 ft | 438 kts | 61° |
| 2026-04-27 19:44 | -42.61036 | -70.43900 | 24093 ft | 442 kts | 61° |
| 2026-04-27 19:44 | -42.59541 | -70.40239 | 24677 ft | 445 kts | 61° |
| 2026-04-27 19:44 | -42.58028 | -70.36534 | 25200 ft | 450 kts | 61° |
| 2026-04-27 19:45 | -42.56500 | -70.32799 | 25674 ft | 455 kts | 61° |
| 2026-04-27 19:45 | -42.54956 | -70.29030 | 26202 ft | 459 kts | 61° |
| 2026-04-27 19:45 | -42.53399 | -70.25235 | 26676 ft | 463 kts | 61° |
| 2026-04-27 19:45 | -42.51822 | -70.21396 | 27135 ft | 467 kts | 60° |
| 2026-04-27 19:46 | -42.50235 | -70.17539 | 27599 ft | 470 kts | 60° |
| 2026-04-27 19:46 | -42.48638 | -70.13661 | 28038 ft | 473 kts | 60° |
| 2026-04-27 19:46 | -42.47045 | -70.09802 | 28417 ft | 478 kts | 60° |
| 2026-04-27 19:46 | -42.45413 | -70.05852 | 28812 ft | 481 kts | 60° |
| 2026-04-27 19:47 | -42.43771 | -70.01883 | 29225 ft | 484 kts | 60° |
| 2026-04-27 19:47 | -42.42117 | -69.97891 | 29596 ft | 488 kts | 60° |
| 2026-04-27 19:47 | -42.40450 | -69.93873 | 29966 ft | 491 kts | 60° |
| 2026-04-27 19:47 | -42.38775 | -69.89840 | 30349 ft | 493 kts | 60° |
| 2026-04-27 19:48 | -42.37091 | -69.85791 | 30731 ft | 495 kts | 60° |
| 2026-04-27 19:48 | -42.35400 | -69.81730 | 31082 ft | 497 kts | 60° |
| 2026-04-27 19:48 | -42.33693 | -69.77637 | 31385 ft | 500 kts | 60° |
| 2026-04-27 19:48 | -42.31977 | -69.73528 | 31658 ft | 503 kts | 60° |
| 2026-04-27 19:49 | -42.30274 | -69.69455 | 31972 ft | 505 kts | 60° |
| 2026-04-27 19:49 | -42.28526 | -69.65281 | 32383 ft | 503 kts | 60° |
| 2026-04-27 19:49 | -42.26823 | -69.61220 | 32807 ft | 502 kts | 60° |
| 2026-04-27 19:49 | -42.25103 | -69.57123 | 33213 ft | 501 kts | 60° |
| 2026-04-27 19:50 | -42.23382 | -69.53032 | 33557 ft | 500 kts | 60° |
| 2026-04-27 19:50 | -42.21663 | -69.48950 | 33890 ft | 500 kts | 60° |
| 2026-04-27 19:50 | -42.19943 | -69.44870 | 34240 ft | 500 kts | 60° |
| 2026-04-27 19:50 | -42.18223 | -69.40798 | 34601 ft | 498 kts | 60° |
| 2026-04-27 19:51 | -42.16509 | -69.36746 | 34955 ft | 497 kts | 60° |
| 2026-04-27 19:51 | -42.14795 | -69.32699 | 35269 ft | 496 kts | 60° |
| 2026-04-27 19:51 | -42.13083 | -69.28660 | 35586 ft | 495 kts | 60° |
| 2026-04-27 19:51 | -42.11375 | -69.24637 | 35898 ft | 494 kts | 60° |
| 2026-04-27 19:52 | -42.09668 | -69.20624 | 36188 ft | 494 kts | 60° |
| 2026-04-27 19:52 | -42.07963 | -69.16621 | 36486 ft | 492 kts | 60° |
| 2026-04-27 19:52 | -42.06256 | -69.12619 | 36799 ft | 490 kts | 60° |
| 2026-04-27 19:52 | -42.04584 | -69.08703 | 37010 ft | 491 kts | 60° |
| 2026-04-27 19:53 | -42.01186 | -69.00761 | 36966 ft | 486 kts | 60° |
| 2026-04-27 19:53 | -41.97832 | -68.92942 | 36973 ft | 482 kts | 60° |
| 2026-04-27 19:54 | -41.94468 | -68.85117 | 36981 ft | 484 kts | 60° |
| 2026-04-27 19:54 | -41.91087 | -68.77274 | 36980 ft | 486 kts | 60° |
| 2026-04-27 19:55 | -41.87686 | -68.69413 | 36978 ft | 488 kts | 60° |
| 2026-04-27 19:55 | -41.84273 | -68.61539 | 36977 ft | 488 kts | 60° |
| 2026-04-27 19:56 | -41.80852 | -68.53666 | 36965 ft | 488 kts | 60° |
| 2026-04-27 19:56 | -41.77454 | -68.45866 | 36974 ft | 487 kts | 59° |
| 2026-04-27 19:57 | -41.74030 | -68.38034 | 36971 ft | 487 kts | 59° |
| 2026-04-27 19:57 | -41.70608 | -68.30223 | 36959 ft | 486 kts | 59° |
| 2026-04-27 19:58 | -41.67186 | -68.22428 | 36956 ft | 485 kts | 59° |
| 2026-04-27 19:58 | -41.63770 | -68.14671 | 36966 ft | 484 kts | 59° |
| 2026-04-27 19:59 | -41.60346 | -68.06922 | 36959 ft | 483 kts | 59° |
| 2026-04-27 19:59 | -41.56921 | -67.99188 | 36942 ft | 483 kts | 59° |
| 2026-04-27 20:00 | -41.53495 | -67.91471 | 36933 ft | 483 kts | 59° |
| 2026-04-27 20:00 | -41.50090 | -67.83815 | 36930 ft | 482 kts | 59° |
| 2026-04-27 20:01 | -41.46660 | -67.76124 | 36941 ft | 482 kts | 59° |
| 2026-04-27 20:01 | -41.43232 | -67.68456 | 36933 ft | 482 kts | 59° |
| 2026-04-27 20:02 | -41.39791 | -67.60778 | 36940 ft | 483 kts | 59° |
| 2026-04-27 20:02 | -41.36339 | -67.53097 | 36935 ft | 484 kts | 59° |
| 2026-04-27 20:03 | -41.32876 | -67.45409 | 36936 ft | 485 kts | 59° |
| 2026-04-27 20:03 | -41.29403 | -67.37722 | 36936 ft | 485 kts | 59° |
| 2026-04-27 20:04 | -41.25917 | -67.30028 | 36939 ft | 486 kts | 59° |
| 2026-04-27 20:04 | -41.22423 | -67.22329 | 36931 ft | 486 kts | 59° |
| 2026-04-27 20:05 | -41.18946 | -67.14686 | 36938 ft | 487 kts | 58° |
| 2026-04-27 20:05 | -41.15438 | -67.07002 | 36945 ft | 486 kts | 58° |
| 2026-04-27 20:06 | -41.11928 | -66.99330 | 36946 ft | 486 kts | 58° |
| 2026-04-27 20:06 | -41.08412 | -66.91664 | 36937 ft | 486 kts | 58° |
| 2026-04-27 20:07 | -41.04901 | -66.84027 | 36947 ft | 485 kts | 58° |
| 2026-04-27 20:07 | -41.01382 | -66.76398 | 36944 ft | 485 kts | 58° |
| 2026-04-27 20:08 | -40.97867 | -66.68791 | 36944 ft | 485 kts | 58° |
| 2026-04-27 20:08 | -40.94344 | -66.61182 | 36942 ft | 485 kts | 58° |
| 2026-04-27 20:09 | -40.90812 | -66.53579 | 36945 ft | 485 kts | 58° |
| 2026-04-27 20:09 | -40.87299 | -66.46036 | 36952 ft | 485 kts | 58° |
| 2026-04-27 20:10 | -40.83757 | -66.38446 | 36965 ft | 485 kts | 58° |
| 2026-04-27 20:10 | -40.80215 | -66.30875 | 36959 ft | 485 kts | 58° |
| 2026-04-27 20:11 | -40.76670 | -66.23315 | 36966 ft | 485 kts | 58° |
| 2026-04-27 20:11 | -40.73110 | -66.15742 | 36966 ft | 485 kts | 58° |
| 2026-04-27 20:12 | -40.70144 | -66.09448 | 36966 ft | 486 kts | 58° |
| 2026-04-27 20:12 | -40.65985 | -66.00650 | 36961 ft | 487 kts | 58° |
| 2026-04-27 20:13 | -40.62403 | -65.93084 | 36963 ft | 487 kts | 58° |
| 2026-04-27 20:13 | -40.58816 | -65.85529 | 36969 ft | 487 kts | 58° |
| 2026-04-27 20:14 | -40.55217 | -65.77962 | 36959 ft | 487 kts | 58° |
| 2026-04-27 20:14 | -40.51612 | -65.70409 | 36962 ft | 487 kts | 58° |
| 2026-04-27 20:15 | -40.48005 | -65.62869 | 36977 ft | 487 kts | 58° |
| 2026-04-27 20:15 | -40.44398 | -65.55343 | 36978 ft | 487 kts | 58° |
| 2026-04-27 20:16 | -40.40789 | -65.47834 | 36984 ft | 487 kts | 58° |
| 2026-04-27 20:16 | -40.37167 | -65.40320 | 36966 ft | 487 kts | 58° |
| 2026-04-27 20:17 | -40.33567 | -65.32871 | 36966 ft | 487 kts | 58° |
| 2026-04-27 20:17 | -40.30530 | -65.26596 | 36953 ft | 486 kts | 58° |
| 2026-04-27 20:18 | -40.26315 | -65.17905 | 36943 ft | 486 kts | 58° |
| 2026-04-27 20:18 | -40.22676 | -65.10425 | 36932 ft | 486 kts | 58° |
| 2026-04-27 20:19 | -40.19043 | -65.02973 | 36943 ft | 486 kts | 58° |
| 2026-04-27 20:19 | -40.15408 | -64.95533 | 36946 ft | 485 kts | 58° |
| 2026-04-27 20:20 | -40.11771 | -64.88114 | 36945 ft | 484 kts | 58° |
| 2026-04-27 20:20 | -40.08133 | -64.80708 | 36941 ft | 484 kts | 58° |
| 2026-04-27 20:21 | -40.04517 | -64.73361 | 36947 ft | 484 kts | 58° |
| 2026-04-27 20:21 | -40.00873 | -64.65975 | 36943 ft | 484 kts | 58° |
| 2026-04-27 20:22 | -39.97219 | -64.58584 | 36938 ft | 484 kts | 58° |
| 2026-04-27 20:22 | -39.93563 | -64.51208 | 36954 ft | 485 kts | 57° |
| 2026-04-27 20:23 | -39.89890 | -64.43817 | 36944 ft | 486 kts | 58° |
| 2026-04-27 20:23 | -39.86230 | -64.36470 | 36944 ft | 486 kts | 57° |
| 2026-04-27 20:24 | -39.82545 | -64.29087 | 36945 ft | 487 kts | 57° |
| 2026-04-27 20:24 | -39.78850 | -64.21703 | 36948 ft | 487 kts | 57° |
| 2026-04-27 20:25 | -39.75154 | -64.14334 | 36948 ft | 486 kts | 57° |
| 2026-04-27 20:25 | -39.71450 | -64.06967 | 36955 ft | 486 kts | 57° |
| 2026-04-27 20:26 | -39.67746 | -63.99615 | 36954 ft | 486 kts | 57° |
| 2026-04-27 20:26 | -39.64038 | -63.92271 | 36953 ft | 487 kts | 57° |
| 2026-04-27 20:27 | -39.60321 | -63.84931 | 36956 ft | 486 kts | 57° |
| 2026-04-27 20:27 | -39.56620 | -63.77641 | 36960 ft | 486 kts | 57° |
| 2026-04-27 20:28 | -39.52898 | -63.70320 | 36966 ft | 486 kts | 57° |
| 2026-04-27 20:28 | -39.49803 | -63.64244 | 36962 ft | 486 kts | 57° |
| 2026-04-27 20:29 | -39.45443 | -63.55710 | 36968 ft | 486 kts | 56° |
| 2026-04-27 20:29 | -39.41708 | -63.48414 | 36975 ft | 486 kts | 56° |
| 2026-04-27 20:30 | -39.37961 | -63.41109 | 36974 ft | 487 kts | 56° |
| 2026-04-27 20:30 | -39.34123 | -63.33973 | 36967 ft | 487 kts | 47° |
| 2026-04-27 20:31 | -39.29125 | -63.28139 | 36992 ft | 484 kts | 37° |
| 2026-04-27 20:31 | -39.23916 | -63.22568 | 36986 ft | 485 kts | 37° |
| 2026-04-27 20:32 | -39.19613 | -63.17908 | 36990 ft | 486 kts | 38° |
| 2026-04-27 20:32 | -39.14450 | -63.12275 | 36990 ft | 487 kts | 38° |
| 2026-04-27 20:33 | -39.09287 | -63.06627 | 37002 ft | 487 kts | 38° |
| 2026-04-27 20:33 | -39.04116 | -63.00983 | 37001 ft | 487 kts | 37° |
| 2026-04-27 20:34 | -38.98939 | -62.95347 | 37005 ft | 487 kts | 37° |
| 2026-04-27 20:34 | -38.93759 | -62.89719 | 37005 ft | 488 kts | 37° |
| 2026-04-27 20:35 | -38.88570 | -62.84098 | 37011 ft | 488 kts | 37° |
| 2026-04-27 20:35 | -38.83386 | -62.78491 | 37007 ft | 488 kts | 37° |
| 2026-04-27 20:36 | -38.78200 | -62.72892 | 37021 ft | 487 kts | 37° |
| 2026-04-27 20:36 | -38.73012 | -62.67303 | 37015 ft | 487 kts | 37° |
| 2026-04-27 20:37 | -38.67964 | -62.61877 | 37019 ft | 487 kts | 37° |
| 2026-04-27 20:37 | -38.62802 | -62.56340 | 37018 ft | 487 kts | 37° |
| 2026-04-27 20:38 | -38.57600 | -62.50767 | 37017 ft | 488 kts | 36° |
| 2026-04-27 20:38 | -38.52395 | -62.45204 | 37019 ft | 488 kts | 36° |
| 2026-04-27 20:39 | -38.47182 | -62.39642 | 37019 ft | 488 kts | 36° |
| 2026-04-27 20:39 | -38.41955 | -62.34076 | 37020 ft | 489 kts | 36° |
| 2026-04-27 20:40 | -38.36726 | -62.28519 | 37017 ft | 489 kts | 36° |
| 2026-04-27 20:40 | -38.31496 | -62.22975 | 37017 ft | 490 kts | 36° |
| 2026-04-27 20:41 | -38.26258 | -62.17424 | 37022 ft | 490 kts | 36° |
| 2026-04-27 20:41 | -38.21037 | -62.11908 | 37017 ft | 491 kts | 36° |
| 2026-04-27 20:42 | -38.15786 | -62.06372 | 37023 ft | 490 kts | 35° |
| 2026-04-27 20:42 | -38.10530 | -62.00842 | 37020 ft | 491 kts | 35° |
| 2026-04-27 20:43 | -38.05260 | -61.95305 | 37017 ft | 491 kts | 35° |
| 2026-04-27 20:43 | -37.99996 | -61.89787 | 37017 ft | 491 kts | 35° |
| 2026-04-27 20:44 | -37.94729 | -61.84277 | 37016 ft | 491 kts | 35° |
| 2026-04-27 20:44 | -37.89460 | -61.78772 | 37014 ft | 491 kts | 35° |
| 2026-04-27 20:45 | -37.84184 | -61.73272 | 37017 ft | 490 kts | 35° |
| 2026-04-27 20:45 | -37.78918 | -61.67793 | 37017 ft | 490 kts | 35° |
| 2026-04-27 20:46 | -37.73685 | -61.62361 | 37019 ft | 490 kts | 35° |
| 2026-04-27 20:46 | -37.68420 | -61.56902 | 37018 ft | 490 kts | 35° |
| 2026-04-27 20:47 | -37.63150 | -61.51454 | 37016 ft | 490 kts | 35° |
| 2026-04-27 20:47 | -37.57873 | -61.46005 | 37009 ft | 490 kts | 35° |
| 2026-04-27 20:48 | -37.52599 | -61.40568 | 37020 ft | 490 kts | 35° |
| 2026-04-27 20:48 | -37.47320 | -61.35136 | 37020 ft | 490 kts | 35° |
| 2026-04-27 20:49 | -37.42069 | -61.29744 | 37018 ft | 490 kts | 35° |
| 2026-04-27 20:49 | -37.36780 | -61.24324 | 37013 ft | 490 kts | 35° |
| 2026-04-27 20:50 | -37.31483 | -61.18906 | 37008 ft | 491 kts | 35° |
| 2026-04-27 20:50 | -37.26177 | -61.13486 | 37013 ft | 491 kts | 35° |
| 2026-04-27 20:51 | -37.20872 | -61.08081 | 37006 ft | 491 kts | 35° |
| 2026-04-27 20:51 | -37.15559 | -61.02677 | 37021 ft | 491 kts | 35° |
| 2026-04-27 20:52 | -37.10243 | -60.97282 | 37018 ft | 492 kts | 35° |
| 2026-04-27 20:52 | -37.04923 | -60.91891 | 37020 ft | 492 kts | 35° |
| 2026-04-27 20:53 | -36.99623 | -60.86530 | 37015 ft | 492 kts | 35° |
| 2026-04-27 20:53 | -36.94295 | -60.81152 | 37005 ft | 492 kts | 35° |
| 2026-04-27 20:54 | -36.86300 | -60.73097 | 37004 ft | 492 kts | 35° |
| 2026-04-27 20:55 | -36.80960 | -60.67733 | 37014 ft | 493 kts | 35° |
| 2026-04-27 20:55 | -36.75615 | -60.62372 | 37012 ft | 493 kts | 35° |
| 2026-04-27 20:56 | -36.70267 | -60.57018 | 37008 ft | 493 kts | 35° |
| 2026-04-27 20:56 | -36.64914 | -60.51666 | 37010 ft | 493 kts | 35° |
| 2026-04-27 20:57 | -36.59554 | -60.46319 | 37009 ft | 493 kts | 35° |
| 2026-04-27 20:57 | -36.54199 | -60.40986 | 37005 ft | 494 kts | 35° |
| 2026-04-27 20:58 | -36.48837 | -60.35658 | 37008 ft | 493 kts | 35° |
| 2026-04-27 20:58 | -36.43473 | -60.30335 | 37012 ft | 493 kts | 35° |
| 2026-04-27 20:59 | -36.38097 | -60.25012 | 37013 ft | 493 kts | 35° |
| 2026-04-27 20:59 | -36.32768 | -60.19741 | 37021 ft | 493 kts | 35° |
| 2026-04-27 21:00 | -36.27387 | -60.14433 | 37020 ft | 494 kts | 35° |
| 2026-04-27 21:00 | -36.22004 | -60.09131 | 37014 ft | 494 kts | 35° |
| 2026-04-27 21:01 | -36.16685 | -60.03668 | 36442 ft | 501 kts | 45° |
| 2026-04-27 21:01 | -36.14427 | -60.00408 | 36000 ft | 497 kts | 49° |
| 2026-04-27 21:01 | -36.12216 | -59.97104 | 35181 ft | 501 kts | 49° |
| 2026-04-27 21:01 | -36.09970 | -59.93770 | 34354 ft | 506 kts | 49° |
| 2026-04-27 21:02 | -36.07699 | -59.90435 | 33608 ft | 507 kts | 49° |
| 2026-04-27 21:02 | -36.05419 | -59.87117 | 32986 ft | 506 kts | 49° |
| 2026-04-27 21:02 | -36.03171 | -59.83864 | 32456 ft | 502 kts | 49° |
| 2026-04-27 21:02 | -36.00904 | -59.80593 | 31821 ft | 501 kts | 47° |
| 2026-04-27 21:03 | -35.98633 | -59.77325 | 31206 ft | 500 kts | 46° |
| 2026-04-27 21:03 | -35.96377 | -59.74083 | 30742 ft | 495 kts | 46° |
| 2026-04-27 21:03 | -35.94148 | -59.70881 | 30315 ft | 489 kts | 46° |
| 2026-04-27 21:03 | -35.91946 | -59.67719 | 29855 ft | 484 kts | 46° |
| 2026-04-27 21:04 | -35.89756 | -59.64577 | 29352 ft | 480 kts | 46° |
| 2026-04-27 21:04 | -35.87589 | -59.61471 | 28833 ft | 476 kts | 46° |
| 2026-04-27 21:04 | -35.85430 | -59.58379 | 28347 ft | 471 kts | 46° |
| 2026-04-27 21:04 | -35.83305 | -59.55337 | 27852 ft | 467 kts | 46° |
| 2026-04-27 21:05 | -35.81194 | -59.52318 | 27351 ft | 462 kts | 46° |
| 2026-04-27 21:05 | -35.79103 | -59.49330 | 26870 ft | 458 kts | 46° |
| 2026-04-27 21:05 | -35.77034 | -59.46377 | 26373 ft | 454 kts | 46° |
| 2026-04-27 21:05 | -35.74982 | -59.43450 | 25873 ft | 450 kts | 46° |
| 2026-04-27 21:06 | -35.72944 | -59.40547 | 25392 ft | 445 kts | 46° |
| 2026-04-27 21:06 | -35.70929 | -59.37679 | 24909 ft | 441 kts | 46° |
| 2026-04-27 21:06 | -35.68933 | -59.34840 | 24431 ft | 437 kts | 46° |
| 2026-04-27 21:06 | -35.66951 | -59.32025 | 23933 ft | 433 kts | 46° |
| 2026-04-27 21:07 | -35.64990 | -59.29240 | 23451 ft | 430 kts | 46° |
| 2026-04-27 21:07 | -35.63041 | -59.26476 | 22951 ft | 426 kts | 46° |
| 2026-04-27 21:07 | -35.61109 | -59.23737 | 22466 ft | 422 kts | 46° |
| 2026-04-27 21:07 | -35.59190 | -59.21018 | 22007 ft | 418 kts | 46° |
| 2026-04-27 21:08 | -35.57295 | -59.18335 | 21540 ft | 414 kts | 46° |
| 2026-04-27 21:08 | -35.55413 | -59.15673 | 21054 ft | 411 kts | 46° |
| 2026-04-27 21:08 | -35.53544 | -59.13032 | 20578 ft | 407 kts | 46° |
| 2026-04-27 21:08 | -35.51692 | -59.10418 | 20073 ft | 404 kts | 47° |
| 2026-04-27 21:09 | -35.49853 | -59.07824 | 19593 ft | 401 kts | 46° |
| 2026-04-27 21:09 | -35.48053 | -59.05284 | 19131 ft | 397 kts | 47° |
| 2026-04-27 21:09 | -35.46247 | -59.02740 | 18675 ft | 394 kts | 47° |
| 2026-04-27 21:09 | -35.44456 | -59.00219 | 18193 ft | 391 kts | 47° |
| 2026-04-27 21:10 | -35.42678 | -58.97717 | 17710 ft | 388 kts | 47° |
| 2026-04-27 21:10 | -35.40910 | -58.95231 | 17261 ft | 384 kts | 47° |
| 2026-04-27 21:10 | -35.39165 | -58.92779 | 16798 ft | 381 kts | 47° |
| 2026-04-27 21:10 | -35.37430 | -58.90343 | 16327 ft | 378 kts | 47° |
| 2026-04-27 21:11 | -35.35709 | -58.87929 | 15869 ft | 375 kts | 47° |
| 2026-04-27 21:11 | -35.34002 | -58.85534 | 15414 ft | 371 kts | 47° |
| 2026-04-27 21:11 | -35.32309 | -58.83163 | 14957 ft | 368 kts | 47° |
| 2026-04-27 21:11 | -35.30632 | -58.80816 | 14482 ft | 365 kts | 47° |
| 2026-04-27 21:12 | -35.28968 | -58.78490 | 14025 ft | 362 kts | 47° |
| 2026-04-27 21:12 | -35.27315 | -58.76179 | 13573 ft | 359 kts | 47° |
| 2026-04-27 21:12 | -35.25691 | -58.73910 | 13401 ft | 347 kts | 47° |
| 2026-04-27 21:12 | -35.24136 | -58.71738 | 13290 ft | 334 kts | 47° |
| 2026-04-27 21:13 | -35.22631 | -58.69638 | 13139 ft | 323 kts | 47° |
| 2026-04-27 21:13 | -35.21161 | -58.67586 | 12817 ft | 320 kts | 47° |
| 2026-04-27 21:13 | -35.19695 | -58.65543 | 12406 ft | 320 kts | 47° |
| 2026-04-27 21:13 | -35.18231 | -58.63506 | 12063 ft | 317 kts | 47° |
| 2026-04-27 21:14 | -35.16782 | -58.61488 | 11717 ft | 314 kts | 47° |
| 2026-04-27 21:14 | -35.15347 | -58.59492 | 11400 ft | 311 kts | 47° |
| 2026-04-27 21:14 | -35.13924 | -58.57514 | 11065 ft | 308 kts | 47° |
| 2026-04-27 21:14 | -35.12517 | -58.55559 | 10738 ft | 305 kts | 47° |
| 2026-04-27 21:15 | -35.11125 | -58.53623 | 10406 ft | 302 kts | 47° |
| 2026-04-27 21:15 | -35.09764 | -58.51733 | 10072 ft | 299 kts | 47° |
| 2026-04-27 21:15 | -35.08398 | -58.49839 | 9769 ft | 295 kts | 48° |
| 2026-04-27 21:15 | -35.07050 | -58.47971 | 9458 ft | 292 kts | 48° |
| 2026-04-27 21:16 | -35.05713 | -58.46118 | 9118 ft | 290 kts | 48° |
| 2026-04-27 21:16 | -35.04392 | -58.44287 | 8823 ft | 285 kts | 48° |
| 2026-04-27 21:16 | -35.03506 | -58.43060 | 8596 ft | 284 kts | 48° |
| 2026-04-27 21:16 | -35.01779 | -58.40669 | 8111 ft | 283 kts | 48° |
| 2026-04-27 21:17 | -35.00901 | -58.39453 | 7876 ft | 282 kts | 48° |
| 2026-04-27 21:17 | -34.99607 | -58.37664 | 7556 ft | 280 kts | 48° |
| 2026-04-27 21:17 | -34.98323 | -58.35890 | 7237 ft | 278 kts | 48° |
| 2026-04-27 21:17 | -34.97006 | -58.34233 | 7104 ft | 266 kts | 34° |
| 2026-04-27 21:18 | -34.95358 | -58.33384 | 6990 ft | 252 kts | 9° |
| 2026-04-27 21:18 | -34.93663 | -58.33057 | 6718 ft | 249 kts | 4° |
| 2026-04-27 21:18 | -34.91942 | -58.32804 | 6424 ft | 248 kts | 4° |
| 2026-04-27 21:18 | -34.90253 | -58.32555 | 6294 ft | 240 kts | 4° |
| 2026-04-27 21:19 | -34.88630 | -58.32311 | 6207 ft | 230 kts | 2° |
| 2026-04-27 21:19 | -34.87106 | -58.32531 | 6003 ft | 217 kts | 331° |
| 2026-04-27 21:19 | -34.86008 | -58.33678 | 5755 ft | 206 kts | 296° |
| 2026-04-27 21:20 | -34.85555 | -58.37110 | 5116 ft | 214 kts | 270° |
| 2026-04-27 21:20 | -34.85502 | -58.38940 | 5109 ft | 219 kts | 270° |
| 2026-04-27 21:20 | -34.85455 | -58.40831 | 5073 ft | 230 kts | 270° |
| 2026-04-27 21:20 | -34.85407 | -58.42799 | 5049 ft | 235 kts | 270° |
| 2026-04-27 21:21 | -34.85361 | -58.44789 | 5051 ft | 235 kts | 270° |
| 2026-04-27 21:21 | -34.85316 | -58.46771 | 5045 ft | 234 kts | 270° |
| 2026-04-27 21:21 | -34.85269 | -58.48747 | 5053 ft | 234 kts | 270° |
| 2026-04-27 21:21 | -34.85224 | -58.50737 | 5039 ft | 235 kts | 270° |
| 2026-04-27 21:22 | -34.85176 | -58.52729 | 5035 ft | 236 kts | 270° |
| 2026-04-27 21:22 | -34.85136 | -58.54724 | 5046 ft | 235 kts | 266° |
| 2026-04-27 21:22 | -34.85575 | -58.56604 | 5009 ft | 231 kts | 238° |
| 2026-04-27 21:22 | -34.86733 | -58.57877 | 4916 ft | 221 kts | 206° |
| 2026-04-27 21:23 | -34.88214 | -58.58200 | 4674 ft | 216 kts | 182° |
| 2026-04-27 21:23 | -34.89717 | -58.58141 | 4285 ft | 216 kts | 181° |
| 2026-04-27 21:23 | -34.91217 | -58.58049 | 3907 ft | 215 kts | 180° |
| 2026-04-27 21:23 | -34.92701 | -58.57950 | 3529 ft | 214 kts | 180° |
| 2026-04-27 21:24 | -34.94169 | -58.57849 | 3150 ft | 213 kts | 180° |
| 2026-04-27 21:24 | -34.95647 | -58.57743 | 3047 ft | 213 kts | 180° |
| 2026-04-27 21:24 | -34.97126 | -58.57457 | 2989 ft | 223 kts | 158° |
| 2026-04-27 21:24 | -34.98214 | -58.56119 | 3018 ft | 231 kts | 116° |
| 2026-04-27 21:25 | -34.98350 | -58.54176 | 3020 ft | 237 kts | 79° |
| 2026-04-27 21:25 | -34.98043 | -58.52191 | 2999 ft | 239 kts | 84° |
| 2026-04-27 21:25 | -34.97868 | -58.50184 | 3003 ft | 237 kts | 86° |
| 2026-04-27 21:25 | -34.97721 | -58.48182 | 2995 ft | 237 kts | 86° |
| 2026-04-27 21:26 | -34.97579 | -58.46183 | 2993 ft | 236 kts | 86° |
| 2026-04-27 21:26 | -34.97439 | -58.44188 | 2993 ft | 236 kts | 86° |
| 2026-04-27 21:26 | -34.97299 | -58.42196 | 2994 ft | 236 kts | 86° |
| 2026-04-27 21:26 | -34.97158 | -58.40205 | 2996 ft | 235 kts | 86° |
| 2026-04-27 21:27 | -34.97018 | -58.38215 | 2998 ft | 235 kts | 86° |
| 2026-04-27 21:27 | -34.96876 | -58.36270 | 2983 ft | 224 kts | 85° |
| 2026-04-27 21:27 | -34.96377 | -58.34563 | 2985 ft | 214 kts | 50° |
| 2026-04-27 21:27 | -34.95193 | -58.33510 | 3007 ft | 211 kts | 18° |
| 2026-04-27 21:28 | -34.93762 | -58.33111 | 3007 ft | 205 kts | 4° |
| 2026-04-27 21:28 | -34.92397 | -58.32893 | 2987 ft | 196 kts | 3° |
| 2026-04-27 21:28 | -34.91058 | -58.32690 | 2989 ft | 192 kts | 3° |
| 2026-04-27 21:28 | -34.89724 | -58.32484 | 3005 ft | 195 kts | 3° |
| 2026-04-27 21:29 | -34.88368 | -58.32271 | 3009 ft | 198 kts | 3° |
| 2026-04-27 21:29 | -34.87004 | -58.32299 | 2982 ft | 194 kts | 335° |
| 2026-04-27 21:29 | -34.85995 | -58.33262 | 2854 ft | 184 kts | 295° |
| 2026-04-27 21:29 | -34.85611 | -58.34650 | 2835 ft | 170 kts | 280° |
| 2026-04-27 21:30 | -34.85362 | -58.36047 | 2644 ft | 167 kts | 279° |
| 2026-04-27 21:30 | -34.85130 | -58.37369 | 2465 ft | 149 kts | 279° |
| 2026-04-27 21:30 | -34.84920 | -58.38553 | 2238 ft | 136 kts | 280° |
| 2026-04-27 21:30 | -34.84721 | -58.39658 | 2058 ft | 131 kts | 280° |
| 2026-04-27 21:31 | -34.84528 | -58.40739 | 1891 ft | 134 kts | 280° |
| 2026-04-27 21:31 | -34.84328 | -58.41850 | 1724 ft | 135 kts | 281° |
| 2026-04-27 21:31 | -34.84128 | -58.42962 | 1552 ft | 134 kts | 281° |
| 2026-04-27 21:31 | -34.83929 | -58.44070 | 1382 ft | 135 kts | 281° |
| 2026-04-27 21:32 | -34.83727 | -58.45191 | 1205 ft | 135 kts | 281° |
| 2026-04-27 21:32 | -34.83525 | -58.46312 | 1019 ft | 135 kts | 281° |
| 2026-04-27 21:32 | -34.83325 | -58.47424 | 843 ft | 134 kts | 281° |
| 2026-04-27 21:32 | -34.83129 | -58.48559 | 674 ft | 140 kts | 282° |
| 2026-04-27 21:33 | -34.82916 | -58.49728 | 463 ft | 139 kts | 281° |
| 2026-04-27 21:33 | -34.82716 | -58.50854 | 282 ft | 136 kts | 282° |
| 2026-04-27 21:33 | -34.82510 | -58.51979 | 101 ft | 135 kts | 282° |
| 2026-04-27 21:33 | -34.82330 | -58.52973 | 83 ft | 99 kts | 282° |
| 2026-04-27 21:34 | -34.82214 | -58.53617 | 82 ft | 56 kts | 282° |
| 2026-04-27 21:34 | -34.82140 | -58.54032 | 85 ft | 47 kts | 282° |
| 2026-04-27 21:34 | -34.82078 | -58.54374 | 86 ft | 29 kts | 282° |
| 2026-04-27 21:34 | -34.82024 | -58.54539 | 81 ft | 16 kts | 331° |
| 2026-04-27 21:35 | -34.81937 | -58.54489 | 69 ft | 12 kts | 34° |
| 2026-04-27 21:35 | -34.81887 | -58.54447 | 70 ft | 8 kts | 34° |
| 2026-04-27 21:35 | -34.81841 | -58.54409 | 75 ft | 8 kts | 34° |
| 2026-04-27 21:35 | -34.81796 | -58.54371 | 74 ft | 8 kts | 33° |
| 2026-04-27 21:36 | -34.81751 | -58.54384 | 68 ft | 7 kts | 342° |
| 2026-04-27 21:36 | -34.81707 | -58.54375 | 74 ft | 6 kts | 13° |
| 2026-04-27 21:36 | -34.81666 | -58.54364 | 74 ft | 6 kts | 13° |
| 2026-04-27 21:36 | -34.81644 | -58.54357 | 74 ft | 0 kts | 13° |